Terminal Aerodrome Forecast
Issued by NWS

Home | Current Version | Previous Version | Text Only | Print | Product List | Glossary On
Versions: 1 2 3 4 5 6 7 8 9 10 11 12 13 14
000
FTUS44 KLIX 211700
TAFMSY
TAF
KMSY 211728Z 2118/2218 05009KT P6SM SCT045
     FM220000 11004KT P6SM FEW250
     FM221500 01005KT P6SM SCT050=

USA.gov is the U.S. government's official web portal to all federal, state and local government web resources and services.